sensor_id;sensor_type;location;lat;lon;timestamp;temperature;humidity
13496;DHT22;6820;49.374;8.452;2023-07-24T00:02:39;23.11;99.99
13496;DHT22;6820;49.374;8.452;2023-07-24T00:06:40;23.07;99.99
13496;DHT22;6820;49.374;8.452;2023-07-24T00:10:42;23.06;99.99
13496;DHT22;6820;49.374;8.452;2023-07-24T00:14:43;23.03;99.99
13496;DHT22;6820;49.374;8.452;2023-07-24T00:18:45;22.97;99.99
13496;DHT22;6820;49.374;8.452;2023-07-24T00:22:47;22.97;99.99
13496;DHT22;6820;49.374;8.452;2023-07-24T00:26:48;22.96;99.99
13496;DHT22;6820;49.374;8.452;2023-07-24T00:30:51;22.91;99.99
13496;DHT22;6820;49.374;8.452;2023-07-24T00:34:53;22.88;99.99
13496;DHT22;6820;49.374;8.452;2023-07-24T00:38:55;22.86;99.99
13496;DHT22;6820;49.374;8.452;2023-07-24T00:42:57;22.84;99.99
13496;DHT22;6820;49.374;8.452;2023-07-24T00:46:58;22.75;99.99
13496;DHT22;6820;49.374;8.452;2023-07-24T00:51:00;22.67;99.99
13496;DHT22;6820;49.374;8.452;2023-07-24T00:55:03;22.59;99.99
13496;DHT22;6820;49.374;8.452;2023-07-24T00:59:05;22.52;99.99
13496;DHT22;6820;49.374;8.452;2023-07-24T01:03:07;22.48;99.99
13496;DHT22;6820;49.374;8.452;2023-07-24T01:07:10;22.44;99.99
13496;DHT22;6820;49.374;8.452;2023-07-24T01:11:19;22.42;99.99
13496;DHT22;6820;49.374;8.452;2023-07-24T01:15:39;22.41;99.99
13496;DHT22;6820;49.374;8.452;2023-07-24T01:19:47;22.36;99.99
13496;DHT22;6820;49.374;8.452;2023-07-24T01:24:33;22.33;99.99
13496;DHT22;6820;49.374;8.452;2023-07-24T01:28:36;22.27;99.99
13496;DHT22;6820;49.374;8.452;2023-07-24T01:32:38;22.20;99.99
13496;DHT22;6820;49.374;8.452;2023-07-24T01:36:42;22.12;99.99
13496;DHT22;6820;49.374;8.452;2023-07-24T01:40:44;22.12;99.99
13496;DHT22;6820;49.374;8.452;2023-07-24T01:44:51;22.12;99.99
13496;DHT22;6820;49.374;8.452;2023-07-24T01:48:55;22.14;99.99
13496;DHT22;6820;49.374;8.452;2023-07-24T01:52:58;22.15;99.99
13496;DHT22;6820;49.374;8.452;2023-07-24T01:57:00;22.15;99.99
13496;DHT22;6820;49.374;8.452;2023-07-24T02:01:01;22.11;99.99
13496;DHT22;6820;49.374;8.452;2023-07-24T02:05:03;22.09;99.99
13496;DHT22;6820;49.374;8.452;2023-07-24T02:09:05;22.06;99.99
13496;DHT22;6820;49.374;8.452;2023-07-24T02:13:07;21.99;99.99
13496;DHT22;6820;49.374;8.452;2023-07-24T02:17:09;21.94;99.99
13496;DHT22;6820;49.374;8.452;2023-07-24T02:21:10;21.91;99.99
13496;DHT22;6820;49.374;8.452;2023-07-24T02:25:12;21.86;99.99
13496;DHT22;6820;49.374;8.452;2023-07-24T02:29:13;21.85;99.99
13496;DHT22;6820;49.374;8.452;2023-07-24T02:33:17;21.89;99.99
13496;DHT22;6820;49.374;8.452;2023-07-24T02:37:19;21.90;99.99
13496;DHT22;6820;49.374;8.452;2023-07-24T02:41:21;21.90;99.99
13496;DHT22;6820;49.374;8.452;2023-07-24T02:45:22;21.89;99.99
13496;DHT22;6820;49.374;8.452;2023-07-24T02:49:24;21.90;99.99
13496;DHT22;6820;49.374;8.452;2023-07-24T02:53:25;21.89;99.99
13496;DHT22;6820;49.374;8.452;2023-07-24T02:57:27;21.86;99.99
13496;DHT22;6820;49.374;8.452;2023-07-24T03:01:29;21.85;99.99
13496;DHT22;6820;49.374;8.452;2023-07-24T03:05:30;21.85;99.99
13496;DHT22;6820;49.374;8.452;2023-07-24T03:09:32;21.85;99.99
13496;DHT22;6820;49.374;8.452;2023-07-24T03:13:34;21.83;99.99
13496;DHT22;6820;49.374;8.452;2023-07-24T03:17:36;21.79;99.99
13496;DHT22;6820;49.374;8.452;2023-07-24T03:21:37;21.77;99.99
13496;DHT22;6820;49.374;8.452;2023-07-24T03:25:39;21.74;99.99
13496;DHT22;6820;49.374;8.452;2023-07-24T03:29:41;21.71;99.99
13496;DHT22;6820;49.374;8.452;2023-07-24T03:33:42;21.67;99.99
13496;DHT22;6820;49.374;8.452;2023-07-24T03:37:44;21.68;99.99
13496;DHT22;6820;49.374;8.452;2023-07-24T03:41:46;21.68;99.99
13496;DHT22;6820;49.374;8.452;2023-07-24T03:45:48;21.71;99.99
13496;DHT22;6820;49.374;8.452;2023-07-24T03:49:50;21.68;99.99
13496;DHT22;6820;49.374;8.452;2023-07-24T03:53:51;21.68;99.99
13496;DHT22;6820;49.374;8.452;2023-07-24T03:57:55;21.71;99.99
13496;DHT22;6820;49.374;8.452;2023-07-24T04:01:57;21.74;99.99
13496;DHT22;6820;49.374;8.452;2023-07-24T04:05:59;21.74;99.99
13496;DHT22;6820;49.374;8.452;2023-07-24T04:10:01;21.70;99.99
13496;DHT22;6820;49.374;8.452;2023-07-24T04:14:03;21.68;99.99
13496;DHT22;6820;49.374;8.452;2023-07-24T04:18:04;21.68;99.99
13496;DHT22;6820;49.374;8.452;2023-07-24T04:22:06;21.68;99.99
13496;DHT22;6820;49.374;8.452;2023-07-24T04:26:07;21.68;99.99
13496;DHT22;6820;49.374;8.452;2023-07-24T04:30:09;21.73;99.99
13496;DHT22;6820;49.374;8.452;2023-07-24T04:34:11;21.74;99.99
13496;DHT22;6820;49.374;8.452;2023-07-24T04:38:13;21.73;99.99
13496;DHT22;6820;49.374;8.452;2023-07-24T04:42:14;21.71;99.99
13496;DHT22;6820;49.374;8.452;2023-07-24T04:46:16;21.71;99.99
13496;DHT22;6820;49.374;8.452;2023-07-24T04:50:17;21.70;99.99
13496;DHT22;6820;49.374;8.452;2023-07-24T04:54:19;21.73;99.99
13496;DHT22;6820;49.374;8.452;2023-07-24T04:58:21;21.79;99.99
13496;DHT22;6820;49.374;8.452;2023-07-24T05:02:23;21.86;99.99
13496;DHT22;6820;49.374;8.452;2023-07-24T05:06:24;21.90;99.99
13496;DHT22;6820;49.374;8.452;2023-07-24T05:10:26;21.91;99.99
13496;DHT22;6820;49.374;8.452;2023-07-24T05:14:28;21.94;99.99
13496;DHT22;6820;49.374;8.452;2023-07-24T05:18:29;21.94;99.99
13496;DHT22;6820;49.374;8.452;2023-07-24T05:22:31;22.01;99.99
13496;DHT22;6820;49.374;8.452;2023-07-24T05:26:33;21.99;99.99
13496;DHT22;6820;49.374;8.452;2023-07-24T05:30:34;21.96;99.99
13496;DHT22;6820;49.374;8.452;2023-07-24T05:34:36;21.94;99.99
13496;DHT22;6820;49.374;8.452;2023-07-24T05:38:38;21.98;99.99
13496;DHT22;6820;49.374;8.452;2023-07-24T05:42:39;21.99;99.99
13496;DHT22;6820;49.374;8.452;2023-07-24T05:46:44;22.04;99.99
13496;DHT22;6820;49.374;8.452;2023-07-24T05:50:46;22.08;99.99
13496;DHT22;6820;49.374;8.452;2023-07-24T05:54:49;22.11;99.99
13496;DHT22;6820;49.374;8.452;2023-07-24T05:58:50;22.12;99.99
13496;DHT22;6820;49.374;8.452;2023-07-24T06:02:52;22.20;99.99
13496;DHT22;6820;49.374;8.452;2023-07-24T06:06:57;22.21;99.99
13496;DHT22;6820;49.374;8.452;2023-07-24T06:10:59;22.24;99.99
13496;DHT22;6820;49.374;8.452;2023-07-24T06:15:00;22.31;99.99
13496;DHT22;6820;49.374;8.452;2023-07-24T06:19:02;22.42;99.99
13496;DHT22;6820;49.374;8.452;2023-07-24T06:23:04;22.44;99.99
13496;DHT22;6820;49.374;8.452;2023-07-24T06:27:05;22.42;99.99
13496;DHT22;6820;49.374;8.452;2023-07-24T06:31:10;22.44;99.99
13496;DHT22;6820;49.374;8.452;2023-07-24T06:35:11;22.52;99.99
13496;DHT22;6820;49.374;8.452;2023-07-24T06:39:13;22.67;99.99
13496;DHT22;6820;49.374;8.452;2023-07-24T06:43:15;22.66;99.99
13496;DHT22;6820;49.374;8.452;2023-07-24T06:47:16;22.70;99.99
13496;DHT22;6820;49.374;8.452;2023-07-24T06:51:18;22.69;99.99
13496;DHT22;6820;49.374;8.452;2023-07-24T06:55:20;22.81;99.99
13496;DHT22;6820;49.374;8.452;2023-07-24T06:59:21;22.91;99.99
13496;DHT22;6820;49.374;8.452;2023-07-24T07:03:24;23.04;99.99
13496;DHT22;6820;49.374;8.452;2023-07-24T07:07:26;23.16;99.99
13496;DHT22;6820;49.374;8.452;2023-07-24T07:11:27;23.32;99.99
13496;DHT22;6820;49.374;8.452;2023-07-24T07:15:29;23.47;99.99
13496;DHT22;6820;49.374;8.452;2023-07-24T07:19:31;23.62;99.99
13496;DHT22;6820;49.374;8.452;2023-07-24T07:23:32;23.87;99.99
13496;DHT22;6820;49.374;8.452;2023-07-24T07:27:34;24.00;99.99
13496;DHT22;6820;49.374;8.452;2023-07-24T07:31:36;24.04;99.99
13496;DHT22;6820;49.374;8.452;2023-07-24T07:35:37;24.05;99.99
13496;DHT22;6820;49.374;8.452;2023-07-24T07:39:39;23.99;99.99
13496;DHT22;6820;49.374;8.452;2023-07-24T07:43:41;24.00;99.99
13496;DHT22;6820;49.374;8.452;2023-07-24T07:47:42;24.06;99.99
13496;DHT22;6820;49.374;8.452;2023-07-24T07:51:44;24.24;99.99
13496;DHT22;6820;49.374;8.452;2023-07-24T07:55:46;24.37;99.99
13496;DHT22;6820;49.374;8.452;2023-07-24T07:59:47;24.45;99.99
13496;DHT22;6820;49.374;8.452;2023-07-24T08:03:49;24.49;99.99
13496;DHT22;6820;49.374;8.452;2023-07-24T08:07:51;24.51;99.99
13496;DHT22;6820;49.374;8.452;2023-07-24T08:11:52;24.53;99.99
13496;DHT22;6820;49.374;8.452;2023-07-24T08:15:54;24.59;99.99
13496;DHT22;6820;49.374;8.452;2023-07-24T08:19:55;24.68;99.99
13496;DHT22;6820;49.374;8.452;2023-07-24T08:23:57;24.86;99.99
13496;DHT22;6820;49.374;8.452;2023-07-24T08:27:59;25.04;99.99
13496;DHT22;6820;49.374;8.452;2023-07-24T08:32:06;25.16;99.99
13496;DHT22;6820;49.374;8.452;2023-07-24T08:36:09;25.29;99.99
13496;DHT22;6820;49.374;8.452;2023-07-24T08:40:12;25.41;99.99
13496;DHT22;6820;49.374;8.452;2023-07-24T08:44:14;25.42;99.99
13496;DHT22;6820;49.374;8.452;2023-07-24T08:48:17;25.61;99.99
13496;DHT22;6820;49.374;8.452;2023-07-24T08:52:20;25.69;99.99
13496;DHT22;6820;49.374;8.452;2023-07-24T08:56:36;25.78;99.99
13496;DHT22;6820;49.374;8.452;2023-07-24T09:00:39;25.72;99.99
13496;DHT22;6820;49.374;8.452;2023-07-24T09:04:41;25.60;99.99
13496;DHT22;6820;49.374;8.452;2023-07-24T09:08:43;25.63;99.99
13496;DHT22;6820;49.374;8.452;2023-07-24T09:12:45;25.76;99.99
13496;DHT22;6820;49.374;8.452;2023-07-24T09:16:46;25.93;99.99
13496;DHT22;6820;49.374;8.452;2023-07-24T09:20:48;26.17;99.99
13496;DHT22;6820;49.374;8.452;2023-07-24T09:24:54;26.28;99.99
13496;DHT22;6820;49.374;8.452;2023-07-24T09:28:57;26.31;99.99
13496;DHT22;6820;49.374;8.452;2023-07-24T09:32:58;26.11;99.99
13496;DHT22;6820;49.374;8.452;2023-07-24T09:37:00;25.98;99.99
13496;DHT22;6820;49.374;8.452;2023-07-24T09:41:02;25.93;99.99
13496;DHT22;6820;49.374;8.452;2023-07-24T09:45:05;25.89;99.99
13496;DHT22;6820;49.374;8.452;2023-07-24T09:49:07;25.90;99.99
13496;DHT22;6820;49.374;8.452;2023-07-24T09:53:12;25.86;99.99
13496;DHT22;6820;49.374;8.452;2023-07-24T09:57:17;25.91;99.99
13496;DHT22;6820;49.374;8.452;2023-07-24T10:01:22;25.83;99.99
13496;DHT22;6820;49.374;8.452;2023-07-24T10:05:25;25.67;99.99
13496;DHT22;6820;49.374;8.452;2023-07-24T10:09:27;25.44;99.99
13496;DHT22;6820;49.374;8.452;2023-07-24T10:13:31;25.24;99.99
13496;DHT22;6820;49.374;8.452;2023-07-24T10:17:40;25.14;99.99
13496;DHT22;6820;49.374;8.452;2023-07-24T10:21:46;25.07;99.99
13496;DHT22;6820;49.374;8.452;2023-07-24T10:25:49;25.02;99.99
13496;DHT22;6820;49.374;8.452;2023-07-24T10:30:00;25.05;99.99
13496;DHT22;6820;49.374;8.452;2023-07-24T10:34:23;25.14;99.99
13496;DHT22;6820;49.374;8.452;2023-07-24T10:38:32;25.24;99.99
13496;DHT22;6820;49.374;8.452;2023-07-24T10:42:40;25.41;99.99
13496;DHT22;6820;49.374;8.452;2023-07-24T10:46:41;25.54;99.99
13496;DHT22;6820;49.374;8.452;2023-07-24T10:50:45;25.66;99.99
13496;DHT22;6820;49.374;8.452;2023-07-24T10:54:51;25.83;99.99
13496;DHT22;6820;49.374;8.452;2023-07-24T10:58:52;25.96;99.99
13496;DHT22;6820;49.374;8.452;2023-07-24T11:02:54;26.13;99.99
13496;DHT22;6820;49.374;8.452;2023-07-24T11:06:56;26.41;99.99
13496;DHT22;6820;49.374;8.452;2023-07-24T11:10:59;26.57;99.99
13496;DHT22;6820;49.374;8.452;2023-07-24T11:15:02;26.61;99.99
13496;DHT22;6820;49.374;8.452;2023-07-24T11:19:04;26.78;99.99
13496;DHT22;6820;49.374;8.452;2023-07-24T11:23:06;26.86;99.99
13496;DHT22;6820;49.374;8.452;2023-07-24T11:27:09;26.97;99.99
13496;DHT22;6820;49.374;8.452;2023-07-24T11:31:13;26.93;99.99
13496;DHT22;6820;49.374;8.452;2023-07-24T11:35:16;26.83;99.99
13496;DHT22;6820;49.374;8.452;2023-07-24T11:39:22;26.65;99.99
13496;DHT22;6820;49.374;8.452;2023-07-24T11:43:24;26.64;99.99
13496;DHT22;6820;49.374;8.452;2023-07-24T11:47:26;26.64;99.99
13496;DHT22;6820;49.374;8.452;2023-07-24T11:51:28;26.73;99.99
13496;DHT22;6820;49.374;8.452;2023-07-24T11:55:31;26.83;99.99
13496;DHT22;6820;49.374;8.452;2023-07-24T11:59:36;26.84;99.99
13496;DHT22;6820;49.374;8.452;2023-07-24T12:03:40;27.13;99.99
13496;DHT22;6820;49.374;8.452;2023-07-24T12:07:43;27.09;99.99
13496;DHT22;6820;49.374;8.452;2023-07-24T12:11:46;26.96;99.99
13496;DHT22;6820;49.374;8.452;2023-07-24T12:15:50;26.78;99.99
13496;DHT22;6820;49.374;8.452;2023-07-24T12:19:52;26.64;99.99
13496;DHT22;6820;49.374;8.452;2023-07-24T12:23:54;26.56;99.99
13496;DHT22;6820;49.374;8.452;2023-07-24T12:27:55;26.71;99.99
13496;DHT22;6820;49.374;8.452;2023-07-24T12:31:57;27.16;99.99
13496;DHT22;6820;49.374;8.452;2023-07-24T12:35:58;27.43;99.99
13496;DHT22;6820;49.374;8.452;2023-07-24T12:40:00;27.68;99.99
13496;DHT22;6820;49.374;8.452;2023-07-24T12:44:02;27.90;99.99
13496;DHT22;6820;49.374;8.452;2023-07-24T12:48:04;28.11;99.99
13496;DHT22;6820;49.374;8.452;2023-07-24T12:52:06;28.11;99.99
13496;DHT22;6820;49.374;8.452;2023-07-24T12:56:08;27.80;99.99
13496;DHT22;6820;49.374;8.452;2023-07-24T13:00:10;27.91;99.99
13496;DHT22;6820;49.374;8.452;2023-07-24T13:04:12;28.28;99.99
13496;DHT22;6820;49.374;8.452;2023-07-24T13:08:14;29.17;99.99
13496;DHT22;6820;49.374;8.452;2023-07-24T13:12:18;29.02;99.99
13496;DHT22;6820;49.374;8.452;2023-07-24T13:16:20;29.42;99.99
13496;DHT22;6820;49.374;8.452;2023-07-24T13:20:22;29.71;99.99
13496;DHT22;6820;49.374;8.452;2023-07-24T13:24:23;29.85;99.99
13496;DHT22;6820;49.374;8.452;2023-07-24T13:28:25;30.03;99.99
13496;DHT22;6820;49.374;8.452;2023-07-24T13:32:27;29.45;99.99
13496;DHT22;6820;49.374;8.452;2023-07-24T13:36:31;29.58;99.99
13496;DHT22;6820;49.374;8.452;2023-07-24T13:40:33;29.99;99.99
13496;DHT22;6820;49.374;8.452;2023-07-24T13:44:35;30.29;99.99
13496;DHT22;6820;49.374;8.452;2023-07-24T13:48:37;30.70;99.99
13496;DHT22;6820;49.374;8.452;2023-07-24T13:52:38;30.29;99.99
13496;DHT22;6820;49.374;8.452;2023-07-24T13:56:40;29.76;99.99
13496;DHT22;6820;49.374;8.452;2023-07-24T14:00:42;29.11;99.99
13496;DHT22;6820;49.374;8.452;2023-07-24T14:04:43;28.72;99.99
13496;DHT22;6820;49.374;8.452;2023-07-24T14:08:45;28.30;99.99
13496;DHT22;6820;49.374;8.452;2023-07-24T14:12:47;27.91;99.99
13496;DHT22;6820;49.374;8.452;2023-07-24T14:16:49;27.43;99.99
13496;DHT22;6820;49.374;8.452;2023-07-24T14:20:50;26.71;99.99
13496;DHT22;6820;49.374;8.452;2023-07-24T14:24:55;25.71;99.99
13496;DHT22;6820;49.374;8.452;2023-07-24T14:28:57;24.56;99.99
13496;DHT22;6820;49.374;8.452;2023-07-24T14:32:59;24.06;99.99
13496;DHT22;6820;49.374;8.452;2023-07-24T14:37:01;23.90;99.99
13496;DHT22;6820;49.374;8.452;2023-07-24T14:41:02;23.86;99.99
13496;DHT22;6820;49.374;8.452;2023-07-24T14:45:04;23.97;99.99
13496;DHT22;6820;49.374;8.452;2023-07-24T14:49:06;24.02;99.99
13496;DHT22;6820;49.374;8.452;2023-07-24T14:53:08;24.06;99.99
13496;DHT22;6820;49.374;8.452;2023-07-24T14:57:10;24.19;99.99
13496;DHT22;6820;49.374;8.452;2023-07-24T15:01:25;24.24;99.99
13496;DHT22;6820;49.374;8.452;2023-07-24T15:05:31;24.33;99.99
13496;DHT22;6820;49.374;8.452;2023-07-24T15:09:33;24.83;99.99
13496;DHT22;6820;49.374;8.452;2023-07-24T15:13:34;25.36;99.99
13496;DHT22;6820;49.374;8.452;2023-07-24T15:17:36;26.09;99.99
13496;DHT22;6820;49.374;8.452;2023-07-24T15:21:38;26.87;99.99
13496;DHT22;6820;49.374;8.452;2023-07-24T15:25:39;27.53;99.99
13496;DHT22;6820;49.374;8.452;2023-07-24T15:29:41;27.84;99.99
13496;DHT22;6820;49.374;8.452;2023-07-24T15:33:43;27.96;99.99
13496;DHT22;6820;49.374;8.452;2023-07-24T15:37:45;28.20;99.99
13496;DHT22;6820;49.374;8.452;2023-07-24T15:41:46;28.21;99.99
13496;DHT22;6820;49.374;8.452;2023-07-24T15:45:48;28.23;99.99
13496;DHT22;6820;49.374;8.452;2023-07-24T15:49:50;28.23;99.99
13496;DHT22;6820;49.374;8.452;2023-07-24T15:53:52;28.28;99.99
13496;DHT22;6820;49.374;8.452;2023-07-24T15:57:54;28.05;99.99
13496;DHT22;6820;49.374;8.452;2023-07-24T16:01:56;27.28;99.99
13496;DHT22;6820;49.374;8.452;2023-07-24T16:05:57;27.66;99.99
13496;DHT22;6820;49.374;8.452;2023-07-24T16:09:59;27.43;99.99
13496;DHT22;6820;49.374;8.452;2023-07-24T16:14:01;27.43;99.99
13496;DHT22;6820;49.374;8.452;2023-07-24T16:18:02;27.11;99.99
13496;DHT22;6820;49.374;8.452;2023-07-24T16:22:06;26.66;99.99
13496;DHT22;6820;49.374;8.452;2023-07-24T16:26:08;26.34;99.99
13496;DHT22;6820;49.374;8.452;2023-07-24T16:30:10;26.06;99.99
13496;DHT22;6820;49.374;8.452;2023-07-24T16:34:12;25.78;99.99
13496;DHT22;6820;49.374;8.452;2023-07-24T16:38:14;25.90;99.99
13496;DHT22;6820;49.374;8.452;2023-07-24T16:42:16;26.47;99.99
13496;DHT22;6820;49.374;8.452;2023-07-24T16:46:19;26.75;99.99
13496;DHT22;6820;49.374;8.452;2023-07-24T16:50:23;26.86;99.99
13496;DHT22;6820;49.374;8.452;2023-07-24T16:54:25;26.73;99.99
13496;DHT22;6820;49.374;8.452;2023-07-24T16:58:27;26.73;99.99
13496;DHT22;6820;49.374;8.452;2023-07-24T17:02:28;26.65;99.99
13496;DHT22;6820;49.374;8.452;2023-07-24T17:06:30;26.49;99.99
13496;DHT22;6820;49.374;8.452;2023-07-24T17:10:42;26.39;99.99
13496;DHT22;6820;49.374;8.452;2023-07-24T17:14:44;26.16;99.99
13496;DHT22;6820;49.374;8.452;2023-07-24T17:18:46;26.23;99.99
13496;DHT22;6820;49.374;8.452;2023-07-24T17:22:55;26.13;99.99
13496;DHT22;6820;49.374;8.452;2023-07-24T17:26:57;26.01;99.99
13496;DHT22;6820;49.374;8.452;2023-07-24T17:30:59;25.91;99.99
13496;DHT22;6820;49.374;8.452;2023-07-24T17:35:00;25.61;99.99
13496;DHT22;6820;49.374;8.452;2023-07-24T17:39:02;25.44;99.99
13496;DHT22;6820;49.374;8.452;2023-07-24T17:43:04;25.27;99.99
13496;DHT22;6820;49.374;8.452;2023-07-24T17:47:05;25.05;99.99
13496;DHT22;6820;49.374;8.452;2023-07-24T17:51:07;24.86;99.99
13496;DHT22;6820;49.374;8.452;2023-07-24T17:55:08;24.68;99.99
13496;DHT22;6820;49.374;8.452;2023-07-24T17:59:10;24.61;99.99
13496;DHT22;6820;49.374;8.452;2023-07-24T18:03:12;24.55;99.99
13496;DHT22;6820;49.374;8.452;2023-07-24T18:07:14;24.48;99.99
13496;DHT22;6820;49.374;8.452;2023-07-24T18:11:15;24.44;99.99
13496;DHT22;6820;49.374;8.452;2023-07-24T18:15:17;24.31;99.99
13496;DHT22;6820;49.374;8.452;2023-07-24T18:19:19;24.19;99.99
13496;DHT22;6820;49.374;8.452;2023-07-24T18:23:21;24.11;99.99
13496;DHT22;6820;49.374;8.452;2023-07-24T18:27:22;24.06;99.99
13496;DHT22;6820;49.374;8.452;2023-07-24T18:31:24;24.02;99.99
13496;DHT22;6820;49.374;8.452;2023-07-24T18:35:27;23.99;99.99
13496;DHT22;6820;49.374;8.452;2023-07-24T18:39:29;23.93;99.99
13496;DHT22;6820;49.374;8.452;2023-07-24T18:43:30;23.87;99.99
13496;DHT22;6820;49.374;8.452;2023-07-24T18:47:32;23.81;99.99
13496;DHT22;6820;49.374;8.452;2023-07-24T18:51:37;23.75;99.99
13496;DHT22;6820;49.374;8.452;2023-07-24T18:55:38;23.69;99.99
13496;DHT22;6820;49.374;8.452;2023-07-24T18:59:41;23.68;99.99
13496;DHT22;6820;49.374;8.452;2023-07-24T19:03:43;23.67;99.99
13496;DHT22;6820;49.374;8.452;2023-07-24T19:07:44;23.57;99.99
13496;DHT22;6820;49.374;8.452;2023-07-24T19:11:46;23.54;99.99
13496;DHT22;6820;49.374;8.452;2023-07-24T19:15:48;23.49;99.99
13496;DHT22;6820;49.374;8.452;2023-07-24T19:19:49;23.38;99.99
13496;DHT22;6820;49.374;8.452;2023-07-24T19:23:51;23.26;99.99
13496;DHT22;6820;49.374;8.452;2023-07-24T19:27:53;23.18;99.99
13496;DHT22;6820;49.374;8.452;2023-07-24T19:31:54;23.16;99.99
13496;DHT22;6820;49.374;8.452;2023-07-24T19:35:57;23.11;99.99
13496;DHT22;6820;49.374;8.452;2023-07-24T19:39:59;23.03;99.99
13496;DHT22;6820;49.374;8.452;2023-07-24T19:44:01;23.00;99.99
13496;DHT22;6820;49.374;8.452;2023-07-24T19:48:03;22.94;99.99
13496;DHT22;6820;49.374;8.452;2023-07-24T19:52:05;22.88;99.99
13496;DHT22;6820;49.374;8.452;2023-07-24T19:56:07;22.81;99.99
13496;DHT22;6820;49.374;8.452;2023-07-24T20:00:08;22.76;99.99
13496;DHT22;6820;49.374;8.452;2023-07-24T20:04:10;22.74;99.99
13496;DHT22;6820;49.374;8.452;2023-07-24T20:08:12;22.69;99.99
13496;DHT22;6820;49.374;8.452;2023-07-24T20:12:14;22.66;99.99
13496;DHT22;6820;49.374;8.452;2023-07-24T20:16:15;22.64;99.99
13496;DHT22;6820;49.374;8.452;2023-07-24T20:20:20;22.64;99.99
13496;DHT22;6820;49.374;8.452;2023-07-24T20:24:22;22.63;99.99
13496;DHT22;6820;49.374;8.452;2023-07-24T20:28:24;22.57;99.99
13496;DHT22;6820;49.374;8.452;2023-07-24T20:32:27;22.52;99.99
13496;DHT22;6820;49.374;8.452;2023-07-24T20:36:30;22.46;99.99
13496;DHT22;6820;49.374;8.452;2023-07-24T20:40:32;22.41;99.99
13496;DHT22;6820;49.374;8.452;2023-07-24T20:44:34;22.36;99.99
13496;DHT22;6820;49.374;8.452;2023-07-24T20:48:36;22.30;99.99
13496;DHT22;6820;49.374;8.452;2023-07-24T20:52:38;22.23;99.99
13496;DHT22;6820;49.374;8.452;2023-07-24T20:56:41;22.12;99.99
13496;DHT22;6820;49.374;8.452;2023-07-24T21:00:42;22.04;99.99
13496;DHT22;6820;49.374;8.452;2023-07-24T21:04:44;21.99;99.99
13496;DHT22;6820;49.374;8.452;2023-07-24T21:08:46;21.98;99.99
13496;DHT22;6820;49.374;8.452;2023-07-24T21:12:47;21.90;99.99
13496;DHT22;6820;49.374;8.452;2023-07-24T21:16:49;21.89;99.99
13496;DHT22;6820;49.374;8.452;2023-07-24T21:20:51;21.86;99.99
13496;DHT22;6820;49.374;8.452;2023-07-24T21:24:52;21.85;99.99
13496;DHT22;6820;49.374;8.452;2023-07-24T21:28:54;21.82;99.99
13496;DHT22;6820;49.374;8.452;2023-07-24T21:32:57;21.82;99.99
13496;DHT22;6820;49.374;8.452;2023-07-24T21:36:59;21.82;99.99
13496;DHT22;6820;49.374;8.452;2023-07-24T21:41:01;21.82;99.99
13496;DHT22;6820;49.374;8.452;2023-07-24T21:45:03;21.85;99.99
13496;DHT22;6820;49.374;8.452;2023-07-24T21:49:05;21.86;99.99
13496;DHT22;6820;49.374;8.452;2023-07-24T21:53:07;21.89;99.99
13496;DHT22;6820;49.374;8.452;2023-07-24T21:57:10;21.90;99.99
13496;DHT22;6820;49.374;8.452;2023-07-24T22:01:11;21.83;99.99
13496;DHT22;6820;49.374;8.452;2023-07-24T22:05:13;21.61;99.99
13496;DHT22;6820;49.374;8.452;2023-07-24T22:09:14;21.71;99.99
13496;DHT22;6820;49.374;8.452;2023-07-24T22:13:16;21.67;99.99
13496;DHT22;6820;49.374;8.452;2023-07-24T22:17:18;21.66;99.99
13496;DHT22;6820;49.374;8.452;2023-07-24T22:21:20;21.66;99.99
13496;DHT22;6820;49.374;8.452;2023-07-24T22:25:21;21.67;99.99
13496;DHT22;6820;49.374;8.452;2023-07-24T22:29:23;21.68;99.99
13496;DHT22;6820;49.374;8.452;2023-07-24T22:33:25;21.70;99.99
13496;DHT22;6820;49.374;8.452;2023-07-24T22:37:26;21.75;99.99
13496;DHT22;6820;49.374;8.452;2023-07-24T22:41:28;21.79;99.99
13496;DHT22;6820;49.374;8.452;2023-07-24T22:45:30;21.82;99.99
13496;DHT22;6820;49.374;8.452;2023-07-24T22:49:31;21.85;99.99
13496;DHT22;6820;49.374;8.452;2023-07-24T22:53:33;21.86;99.99
13496;DHT22;6820;49.374;8.452;2023-07-24T22:57:35;21.86;99.99
13496;DHT22;6820;49.374;8.452;2023-07-24T23:01:36;21.89;99.99
13496;DHT22;6820;49.374;8.452;2023-07-24T23:05:38;21.90;99.99
13496;DHT22;6820;49.374;8.452;2023-07-24T23:09:40;21.90;99.99
13496;DHT22;6820;49.374;8.452;2023-07-24T23:13:41;21.89;99.99
13496;DHT22;6820;49.374;8.452;2023-07-24T23:17:43;21.89;99.99
13496;DHT22;6820;49.374;8.452;2023-07-24T23:21:45;21.86;99.99
13496;DHT22;6820;49.374;8.452;2023-07-24T23:25:46;21.85;99.99
13496;DHT22;6820;49.374;8.452;2023-07-24T23:29:48;21.83;99.99
13496;DHT22;6820;49.374;8.452;2023-07-24T23:33:50;21.85;99.99
13496;DHT22;6820;49.374;8.452;2023-07-24T23:37:51;21.83;99.99
13496;DHT22;6820;49.374;8.452;2023-07-24T23:41:53;21.83;99.99
13496;DHT22;6820;49.374;8.452;2023-07-24T23:45:55;21.74;99.99
13496;DHT22;6820;49.374;8.452;2023-07-24T23:49:57;21.73;99.99
13496;DHT22;6820;49.374;8.452;2023-07-24T23:53:59;21.66;99.99
13496;DHT22;6820;49.374;8.452;2023-07-24T23:58:00;21.61;99.99
